createdAt,value
2022-10-22T00:04:54.994Z,100
2022-10-22T00:09:53.132Z,100
2022-10-22T00:14:51.049Z,100
2022-10-22T00:19:49.320Z,100
2022-10-22T00:24:47.354Z,100
2022-10-22T00:29:45.191Z,100
2022-10-22T00:34:43.084Z,100
2022-10-22T00:39:41.572Z,100
2022-10-22T00:44:39.566Z,100
2022-10-22T00:49:38.583Z,100
2022-10-22T00:54:36.717Z,100
2022-10-22T00:59:34.791Z,100
2022-10-22T01:04:32.835Z,100
2022-10-22T01:09:31.115Z,100
2022-10-22T01:14:29.290Z,100
2022-10-22T01:19:27.466Z,100
2022-10-22T01:24:25.643Z,100
2022-10-22T01:29:23.800Z,100
2022-10-22T01:34:21.882Z,100
2022-10-22T01:39:20.028Z,100
2022-10-22T01:44:18.252Z,100
2022-10-22T01:49:16.274Z,100
2022-10-22T01:54:14.535Z,100
2022-10-22T01:59:12.338Z,100
2022-10-22T02:04:10.710Z,100
2022-10-22T02:09:08.864Z,100
2022-10-22T02:14:06.979Z,100
2022-10-22T02:19:04.717Z,100
2022-10-22T02:24:02.843Z,100
2022-10-22T02:29:00.956Z,100
2022-10-22T02:33:59.612Z,100
2022-10-22T02:38:57.830Z,100
2022-10-22T02:44:10.662Z,100
2022-10-22T02:49:06.303Z,100
2022-10-22T02:54:04.260Z,100
2022-10-22T02:59:05.661Z,100
2022-10-22T03:04:03.168Z,100
2022-10-22T03:09:03.318Z,100
2022-10-22T03:14:00.955Z,100
2022-10-22T03:18:59.129Z,100
2022-10-22T03:23:57.539Z,100
2022-10-22T03:28:55.522Z,100
2022-10-22T03:33:53.450Z,100
2022-10-22T03:38:51.743Z,100
2022-10-22T03:43:49.614Z,100
2022-10-22T03:48:48.897Z,100
2022-10-22T03:53:47.094Z,100
2022-10-22T03:58:45.174Z,100
2022-10-22T04:03:43.438Z,100
2022-10-22T04:08:41.562Z,100
2022-10-22T04:13:39.677Z,100
2022-10-22T04:18:37.844Z,100
2022-10-22T04:23:36.089Z,100
2022-10-22T04:28:34.159Z,100
2022-10-22T04:33:32.386Z,100
2022-10-22T04:38:30.377Z,100
2022-10-22T04:43:28.617Z,100
2022-10-22T04:48:26.853Z,100
2022-10-22T04:53:25.013Z,100
2022-10-22T04:58:23.357Z,100
2022-10-22T05:03:21.793Z,100
2022-10-22T05:08:19.891Z,100
2022-10-22T05:13:18.045Z,100
2022-10-22T05:18:17.840Z,100
2022-10-22T05:23:14.457Z,100
2022-10-22T05:28:12.874Z,100
2022-10-22T05:33:11.311Z,100
2022-10-22T05:38:09.692Z,100
2022-10-22T05:43:08.772Z,98.8
2022-10-22T05:48:08.402Z,91.2
2022-10-22T05:53:10.131Z,84.5
2022-10-22T05:58:08.375Z,86.2
2022-10-22T06:03:09.822Z,77.8
2022-10-22T06:08:11.539Z,71.6
2022-10-22T06:13:10.043Z,71.5
2022-10-22T06:18:06.946Z,73.6
2022-10-22T06:23:04.080Z,75.6
2022-10-22T06:28:02.321Z,77.2
2022-10-22T06:33:02.718Z,67
2022-10-22T06:38:04.477Z,59.3
2022-10-22T06:43:04.866Z,55.1
2022-10-22T06:48:03.824Z,53
2022-10-22T06:53:03.733Z,49.1
2022-10-22T06:58:03.287Z,45.9
2022-10-22T07:03:02.446Z,44.2
2022-10-22T07:08:01.408Z,43.1
2022-10-22T07:13:00.289Z,41.5
2022-10-22T07:17:59.003Z,38.6
2022-10-22T07:22:58.060Z,36.6
2022-10-22T07:27:57.647Z,34.5
2022-10-22T07:32:57.362Z,31.8
2022-10-22T07:37:56.354Z,32.2
2022-10-22T07:42:52.765Z,34.2
2022-10-22T07:47:48.175Z,35.9
2022-10-22T07:52:46.070Z,35.7
2022-10-22T07:57:44.526Z,36.5
2022-10-22T08:02:40.389Z,40.7
2022-10-22T08:07:36.380Z,44
2022-10-22T08:12:33.506Z,46
2022-10-22T08:17:34.696Z,37.9
2022-10-22T08:22:33.660Z,38.6
2022-10-22T08:27:29.589Z,41.2
2022-10-22T08:37:29.057Z,31.8
2022-10-22T08:42:29.976Z,30.5
2022-10-22T08:47:29.444Z,29.9
2022-10-22T08:52:28.266Z,29.3
2022-10-22T08:57:27.191Z,29.3
2022-10-22T09:02:25.836Z,27.9
2022-10-22T09:07:24.471Z,27.6
2022-10-22T09:12:23.084Z,27.2
2022-10-22T09:17:20.988Z,26.9
2022-10-22T09:22:18.875Z,25.8
2022-10-22T09:27:16.473Z,26
2022-10-22T09:32:14.220Z,25.5
2022-10-22T09:37:12.519Z,25.9
2022-10-22T09:42:08.070Z,30
2022-10-22T09:47:07.407Z,27.1
2022-10-22T09:52:08.111Z,24.9
2022-10-22T09:57:07.506Z,23.3
2022-10-22T10:02:08.514Z,23.4
2022-10-22T10:07:05.483Z,22.4
2022-10-22T10:11:59.852Z,27
2022-10-22T10:16:55.973Z,26.5
2022-10-22T10:21:55.884Z,25.3
2022-10-22T10:26:55.563Z,24.6
2022-10-22T10:31:54.473Z,24.3
2022-10-22T10:36:52.002Z,24.4
2022-10-22T10:41:49.918Z,23.9
2022-10-22T10:46:48.168Z,24.7
2022-10-22T10:51:45.510Z,24.8
2022-10-22T10:56:43.542Z,25.2
2022-10-22T11:01:41.097Z,25.8
2022-10-22T11:06:38.844Z,26.1
2022-10-22T11:11:36.818Z,26.2
2022-10-22T11:16:34.557Z,27.2
2022-10-22T11:21:31.873Z,26.1
2022-10-22T11:26:28.944Z,28.8
2022-10-22T11:31:26.092Z,29.6
2022-10-22T11:36:23.374Z,29
2022-10-22T11:41:20.678Z,29.2
2022-10-22T11:46:19.120Z,29.3
2022-10-22T11:51:17.643Z,30
2022-10-22T11:56:15.412Z,30.3
2022-10-22T12:01:12.885Z,29.5
2022-10-22T12:06:10.897Z,29.1
2022-10-22T12:11:09.034Z,27.5
2022-10-22T12:16:10.438Z,27.2
2022-10-22T12:21:05.287Z,31.1
2022-10-22T12:26:02.281Z,30.1
2022-10-22T12:30:58.193Z,34.8
2022-10-22T12:35:56.222Z,34.2
2022-10-22T12:40:54.834Z,30.7
2022-10-22T12:45:52.145Z,31.5
2022-10-22T12:50:49.946Z,32
2022-10-22T12:55:47.331Z,35.9
2022-10-22T13:00:44.777Z,36.4
2022-10-22T13:05:42.019Z,37.2
2022-10-22T13:10:39.377Z,36.5
2022-10-22T13:15:36.712Z,36.9
2022-10-22T13:20:34.865Z,39.7
2022-10-22T13:25:36.007Z,42.1
2022-10-22T13:30:32.359Z,44.1
2022-10-22T13:35:30.062Z,44.9
2022-10-22T13:40:27.540Z,44.2
2022-10-22T13:45:25.592Z,43.6
2022-10-22T13:50:23.183Z,43.4
2022-10-22T13:55:21.200Z,43.6
2022-10-22T14:00:19.002Z,41.6
2022-10-22T14:05:16.754Z,44.6
2022-10-22T14:10:14.327Z,43
2022-10-22T14:15:11.787Z,47
2022-10-22T14:20:09.380Z,50.1
2022-10-22T14:25:06.956Z,50.4
2022-10-22T14:30:04.825Z,51
2022-10-22T14:35:02.534Z,50.5
2022-10-22T14:40:00.627Z,51.8
2022-10-22T14:44:58.500Z,52
2022-10-22T14:49:56.535Z,49.9
2022-10-22T14:54:54.774Z,53.1
2022-10-22T14:59:52.662Z,56
2022-10-22T15:04:50.642Z,55.3
2022-10-22T15:09:48.224Z,55.4
2022-10-22T15:14:45.984Z,55.3
2022-10-22T15:19:43.965Z,57.5
2022-10-22T15:24:41.555Z,59
2022-10-22T15:29:39.549Z,61.3
2022-10-22T15:34:37.085Z,63
2022-10-22T15:39:34.938Z,64.6
2022-10-22T15:44:32.605Z,67.4
2022-10-22T15:49:30.535Z,68.6
2022-10-22T15:54:28.528Z,69.7
2022-10-22T15:59:26.490Z,69.8
2022-10-22T16:04:24.513Z,71.5
2022-10-22T16:09:22.735Z,72.2
2022-10-22T16:14:20.746Z,72.3
2022-10-22T16:19:18.810Z,74.2
2022-10-22T16:24:17.027Z,74.4
2022-10-22T16:29:15.119Z,75.2
2022-10-22T16:34:13.176Z,76
2022-10-22T16:39:11.292Z,75.8
2022-10-22T16:44:09.254Z,75.7
2022-10-22T16:49:07.487Z,74.7
2022-10-22T16:54:06.955Z,74.3
2022-10-22T16:59:03.808Z,73.9
2022-10-22T17:04:01.924Z,72.3
2022-10-22T17:09:00.344Z,74.4
2022-10-22T17:13:58.557Z,74.7
2022-10-22T17:18:56.563Z,72
2022-10-22T17:23:54.762Z,71.8
2022-10-22T17:28:53.121Z,75.4
2022-10-22T17:33:51.197Z,74.5
2022-10-22T17:38:49.027Z,76.4
2022-10-22T17:43:47.086Z,78.2
2022-10-22T17:48:45.370Z,78
2022-10-22T17:53:43.474Z,79.5
2022-10-22T17:58:41.358Z,80.4
2022-10-22T18:03:39.525Z,80.9
2022-10-22T18:08:37.842Z,81.4
2022-10-22T18:13:35.947Z,82.8
2022-10-22T18:18:34.347Z,82.4
2022-10-22T18:23:33.288Z,82.2
2022-10-22T18:28:31.907Z,83.6
2022-10-22T18:33:29.917Z,84.4
2022-10-22T18:38:27.881Z,85.4
2022-10-22T18:43:25.995Z,86.6
2022-10-22T18:48:23.993Z,86.9
2022-10-22T18:53:22.076Z,87.6
2022-10-22T18:58:20.545Z,87.6
2022-10-22T19:03:18.475Z,88.8
2022-10-22T19:08:16.598Z,89.2
2022-10-22T19:13:14.583Z,90.2
2022-10-22T19:18:12.590Z,90.6
2022-10-22T19:23:10.818Z,90.8
2022-10-22T19:28:09.008Z,91.5
2022-10-22T19:33:07.101Z,91.3
2022-10-22T19:38:05.283Z,92
2022-10-22T19:43:03.402Z,91.4
2022-10-22T19:48:02.067Z,92.4
2022-10-22T19:53:00.296Z,93.2
2022-10-22T19:57:58.631Z,93.6
2022-10-22T20:02:57.259Z,93.8
2022-10-22T20:07:55.438Z,94.3
2022-10-22T20:12:53.305Z,95.1
2022-10-22T20:17:51.423Z,95.9
2022-10-22T20:22:49.435Z,96.5
2022-10-22T20:27:47.587Z,96.9
2022-10-22T20:32:45.604Z,96.7
2022-10-22T20:37:43.969Z,97.2
2022-10-22T20:42:42.255Z,98.2
2022-10-22T20:47:50.665Z,98.2
2022-10-22T20:52:38.058Z,98.8
2022-10-22T20:57:36.217Z,99.6
2022-10-22T21:02:33.985Z,99.7
2022-10-22T21:07:32.395Z,100
2022-10-22T21:12:30.924Z,99.7
2022-10-22T21:17:29.505Z,99.2
2022-10-22T21:22:27.566Z,99.1
2022-10-22T21:27:25.593Z,99.3
2022-10-22T21:32:24.004Z,99.4
2022-10-22T21:37:22.202Z,99.6
2022-10-22T21:42:20.457Z,99.7
2022-10-22T21:47:18.570Z,99.3
2022-10-22T21:52:16.468Z,99.6
2022-10-22T21:57:14.537Z,99.3
2022-10-22T22:02:13.300Z,100
2022-10-22T22:07:11.206Z,99.8
2022-10-22T22:12:09.291Z,100
2022-10-22T22:17:07.170Z,100
2022-10-22T22:22:05.136Z,100
2022-10-22T22:27:03.050Z,100
2022-10-22T22:32:01.187Z,100
2022-10-22T22:36:59.194Z,100
2022-10-22T22:41:57.158Z,100
2022-10-22T22:46:55.072Z,100
2022-10-22T22:51:53.276Z,100
2022-10-22T22:56:51.377Z,100
2022-10-22T23:01:50.355Z,100
2022-10-22T23:06:48.261Z,100
2022-10-22T23:11:46.370Z,100
2022-10-22T23:16:44.435Z,100
2022-10-22T23:21:42.891Z,100
2022-10-22T23:26:41.311Z,100
2022-10-22T23:31:39.545Z,100
2022-10-22T23:36:37.764Z,100
2022-10-22T23:41:35.869Z,100
2022-10-22T23:46:33.768Z,100
2022-10-22T23:51:32.236Z,100
2022-10-22T23:56:30.243Z,100
